Time;durP1;ratioP1;P1;durP2;ratioP2;P2;SDS_P1;SDS_P2;PMS_P1;PMS_P2;Temp;Humidity;BMP_temperature;BMP_pressure;BME280_temperature;BME280_humidity;BME280_pressure;Samples;Min_cycle;Max_cycle;Signal;HPM_P1;HPM_P2
2021/11/14 00:02:00;;;;;;;23.23;19.30;;;8.60;99.90;;;;;;5000296;28;20038;-76
2021/11/14 00:04:26;;;;;;;25.00;20.13;;;8.50;99.90;;;;;;5001572;28;20101;-76
2021/11/14 00:06:52;;;;;;;25.35;18.83;;;8.50;99.90;;;;;;5008819;28;20078;-76
2021/11/14 00:09:18;;;;;;;24.10;19.05;;;8.40;99.90;;;;;;4989597;28;20022;-76
2021/11/14 00:11:44;;;;;;;24.20;18.90;;;8.40;99.90;;;;;;4997608;28;20018;-77
2021/11/14 00:14:10;;;;;;;25.63;19.33;;;8.40;99.90;;;;;;4996493;28;20077;-77
2021/11/14 00:16:36;;;;;;;26.48;19.63;;;8.40;99.90;;;;;;4996843;28;20394;-77
2021/11/14 00:19:02;;;;;;;24.48;20.17;;;8.40;99.90;;;;;;4997265;28;20466;-77
2021/11/14 00:21:29;;;;;;;24.63;20.80;;;8.40;99.90;;;;;;4995290;28;20033;-77
2021/11/14 00:23:54;;;;;;;24.60;18.98;;;8.30;99.90;;;;;;4996524;28;20023;-78
2021/11/14 00:26:21;;;;;;;25.45;20.52;;;8.30;99.90;;;;;;4989092;28;20086;-77
2021/11/14 00:28:47;;;;;;;21.92;19.48;;;8.30;99.90;;;;;;4996779;28;20371;-77
2021/11/14 00:31:16;;;;;;;24.13;20.48;;;8.30;99.90;;;;;;5008273;28;21437;-81
2021/11/14 00:33:43;;;;;;;27.42;20.20;;;8.30;99.90;;;;;;5012919;28;20038;-82
2021/11/14 00:36:10;;;;;;;25.83;20.58;;;8.30;99.90;;;;;;5015194;28;20046;-82
2021/11/14 00:38:37;;;;;;;23.80;20.67;;;8.30;99.90;;;;;;5012287;28;20018;-82
2021/11/14 00:41:04;;;;;;;23.05;19.67;;;8.30;99.90;;;;;;5016151;28;20057;-82
2021/11/14 00:43:30;;;;;;;23.17;18.70;;;8.30;99.90;;;;;;5010085;28;20034;-82
2021/11/14 00:45:55;;;;;;;23.90;20.02;;;8.30;99.90;;;;;;5009727;28;20121;-82
2021/11/14 00:48:21;;;;;;;22.30;19.73;;;8.30;99.90;;;;;;5013776;28;20030;-80
2021/11/14 00:50:47;;;;;;;23.65;20.00;;;8.30;99.90;;;;;;5017497;28;20058;-83
2021/11/14 00:53:16;;;;;;;25.63;19.13;;;8.30;99.90;;;;;;5013663;28;20026;-82
2021/11/14 00:55:42;;;;;;;21.63;18.73;;;8.30;99.90;;;;;;5003953;28;20011;-82
2021/11/14 00:58:08;;;;;;;24.80;20.15;;;8.30;99.90;;;;;;5028933;28;20080;-81
2021/11/14 01:00:35;;;;;;;25.30;20.33;;;8.30;99.90;;;;;;5002735;28;20031;-82
2021/11/14 01:03:02;;;;;;;22.67;19.27;;;8.40;99.90;;;;;;5010541;28;20434;-81
2021/11/14 01:05:29;;;;;;;22.63;19.35;;;8.30;99.90;;;;;;5000607;28;20026;-76
2021/11/14 01:07:55;;;;;;;23.15;19.40;;;8.30;99.90;;;;;;4990967;28;20027;-76
2021/11/14 01:10:26;;;;;;;26.98;19.85;;;8.40;99.90;;;;;;4998539;28;20037;-75
2021/11/14 01:12:51;;;;;;;22.10;19.05;;;8.40;99.90;;;;;;5006083;28;20026;-74
2021/11/14 01:15:19;;;;;;;20.75;18.45;;;8.50;99.90;;;;;;5001459;28;20148;-77
2021/11/14 01:17:45;;;;;;;24.23;19.55;;;8.50;99.90;;;;;;4994782;28;20066;-77
2021/11/14 01:20:22;;;;;;;20.42;18.08;;;8.50;99.90;;;;;;4993117;28;20022;-78
2021/11/14 01:22:49;;;;;;;19.75;17.65;;;8.40;99.90;;;;;;4992405;28;20035;-76
2021/11/14 01:25:16;;;;;;;25.25;18.00;;;8.50;99.90;;;;;;4989594;28;20042;-78
2021/11/14 01:27:42;;;;;;;25.45;20.60;;;8.40;99.90;;;;;;4988305;28;20039;-77
2021/11/14 01:30:12;;;;;;;27.65;19.23;;;8.40;99.90;;;;;;5001608;28;20019;-76
2021/11/14 01:32:39;;;;;;;24.58;19.50;;;8.40;99.90;;;;;;5014666;28;20030;-77
2021/11/14 01:35:06;;;;;;;24.08;19.80;;;8.40;99.90;;;;;;5009297;28;20134;-77
2021/11/14 01:37:32;;;;;;;23.45;19.83;;;8.40;99.90;;;;;;5011483;28;20026;-78
2021/11/14 01:39:58;;;;;;;27.77;20.60;;;8.30;99.90;;;;;;4991372;28;20127;-77
2021/11/14 01:42:24;;;;;;;25.55;19.30;;;8.30;99.90;;;;;;4989172;28;20541;-79
2021/11/14 01:44:49;;;;;;;25.15;20.15;;;8.30;99.90;;;;;;4998165;28;20069;-76
2021/11/14 01:47:15;;;;;;;27.38;20.95;;;8.30;99.90;;;;;;4992855;28;20035;-78
2021/11/14 01:49:41;;;;;;;24.33;19.85;;;8.30;99.90;;;;;;5005282;28;20057;-77
2021/11/14 01:52:24;;;;;;;28.27;20.52;;;8.30;99.90;;;;;;4997430;28;20049;-77
2021/11/14 01:54:51;;;;;;;29.50;21.33;;;8.30;99.90;;;;;;5005113;28;20030;-77
2021/11/14 01:57:16;;;;;;;26.67;20.85;;;8.30;99.90;;;;;;5004269;28;20037;-77
2021/11/14 01:59:42;;;;;;;30.08;22.17;;;8.30;99.90;;;;;;5012585;28;20045;-77
2021/11/14 02:02:10;;;;;;;27.60;21.10;;;8.30;99.90;;;;;;5003036;28;20041;-77
2021/11/14 02:04:37;;;;;;;28.67;19.98;;;8.30;99.90;;;;;;5011115;28;20049;-78
2021/11/14 02:07:03;;;;;;;28.83;20.80;;;8.40;99.90;;;;;;4998051;28;20069;-78
2021/11/14 02:09:29;;;;;;;30.00;20.90;;;8.30;99.90;;;;;;4999715;28;20027;-77
2021/11/14 02:11:54;;;;;;;23.55;19.25;;;8.40;99.90;;;;;;4989695;28;20035;-78
2021/11/14 02:14:22;;;;;;;24.23;18.33;;;8.40;99.90;;;;;;4999246;28;20036;-78
2021/11/14 02:16:48;;;;;;;25.75;19.58;;;8.40;99.90;;;;;;5008483;28;20019;-77
2021/11/14 02:19:14;;;;;;;25.85;20.17;;;8.40;99.90;;;;;;5025421;28;20031;-77
2021/11/14 02:21:40;;;;;;;19.65;17.00;;;8.40;99.90;;;;;;5007808;28;20035;-76
2021/11/14 02:24:06;;;;;;;23.58;18.92;;;8.40;99.90;;;;;;5015375;28;20038;-77
2021/11/14 02:26:31;;;;;;;23.20;19.10;;;8.50;99.90;;;;;;5004432;28;20112;-77
2021/11/14 02:28:57;;;;;;;24.63;18.35;;;8.40;99.90;;;;;;5013786;28;20035;-76
2021/11/14 02:31:24;;;;;;;20.83;17.48;;;8.40;99.90;;;;;;5007299;28;20053;-77
2021/11/14 02:33:51;;;;;;;24.05;17.80;;;8.50;99.90;;;;;;4997022;28;20114;-77
2021/11/14 02:36:18;;;;;;;24.08;18.30;;;8.50;99.90;;;;;;4990017;28;20046;-76
2021/11/14 02:38:44;;;;;;;22.92;18.80;;;8.50;99.90;;;;;;5006389;28;20026;-76
2021/11/14 02:41:11;;;;;;;23.55;19.23;;;8.40;99.90;;;;;;4996241;28;20042;-78
2021/11/14 02:43:39;;;;;;;27.48;20.55;;;8.40;99.90;;;;;;4991598;28;20142;-77
2021/11/14 02:46:05;;;;;;;21.85;17.98;;;8.40;99.90;;;;;;5011816;28;20473;-77
2021/11/14 02:48:30;;;;;;;24.30;18.70;;;8.50;99.90;;;;;;4996574;28;20018;-76
2021/11/14 02:50:58;;;;;;;23.02;18.63;;;8.50;99.90;;;;;;4998910;28;20022;-77
2021/11/14 02:53:25;;;;;;;26.15;18.88;;;8.40;99.90;;;;;;4995209;28;20413;-77
2021/11/14 02:55:51;;;;;;;24.75;19.48;;;8.40;99.90;;;;;;4998167;28;20038;-77
2021/11/14 02:58:17;;;;;;;20.85;17.13;;;8.50;99.90;;;;;;4999823;28;20086;-77
2021/11/14 03:00:54;;;;;;;24.55;18.42;;;8.40;99.90;;;;;;4994765;28;20467;-78
2021/11/14 03:03:20;;;;;;;23.25;18.65;;;8.40;99.90;;;;;;4994954;28;20031;-77
2021/11/14 03:05:46;;;;;;;25.58;18.35;;;8.40;99.90;;;;;;4986273;28;20082;-78
2021/11/14 03:08:12;;;;;;;23.77;18.00;;;8.40;99.90;;;;;;4987031;28;20514;-78
2021/11/14 03:10:40;;;;;;;22.08;17.55;;;8.40;99.90;;;;;;4997611;28;20026;-77
2021/11/14 03:13:09;;;;;;;23.92;17.70;;;8.50;99.90;;;;;;4992253;28;20359;-77
2021/11/14 03:15:39;;;;;;;21.50;18.50;;;8.50;99.90;;;;;;4988022;28;20113;-77
2021/11/14 03:18:06;;;;;;;25.30;18.73;;;8.50;99.90;;;;;;4993710;28;20033;-78
2021/11/14 03:20:34;;;;;;;21.88;17.70;;;8.50;99.90;;;;;;4993167;28;20030;-78
2021/11/14 03:23:00;;;;;;;22.90;18.58;;;8.40;99.90;;;;;;4990849;28;20605;-76
2021/11/14 03:25:27;;;;;;;22.77;18.67;;;8.30;99.90;;;;;;4985270;28;20030;-77
2021/11/14 03:27:54;;;;;;;21.65;19.02;;;8.30;99.90;;;;;;4993188;28;20014;-77
2021/11/14 03:30:20;;;;;;;27.08;17.83;;;8.40;99.90;;;;;;5003389;28;20038;-77
2021/11/14 03:32:47;;;;;;;24.17;18.85;;;8.40;99.90;;;;;;4995106;28;20581;-79
2021/11/14 03:35:13;;;;;;;23.25;18.67;;;8.40;99.90;;;;;;4977668;28;20046;-77
2021/11/14 03:37:39;;;;;;;22.10;17.58;;;8.40;99.90;;;;;;5000147;28;20521;-77
2021/11/14 03:40:08;;;;;;;22.90;18.25;;;8.40;99.90;;;;;;4995995;28;20069;-77
2021/11/14 03:42:34;;;;;;;22.65;18.10;;;8.40;99.90;;;;;;5001916;28;20026;-76
2021/11/14 03:45:01;;;;;;;24.55;17.95;;;8.30;99.90;;;;;;4999288;28;20031;-78
2021/11/14 03:47:27;;;;;;;27.67;17.38;;;8.40;99.90;;;;;;4992715;28;20109;-76
2021/11/14 03:49:53;;;;;;;21.50;17.05;;;8.40;99.90;;;;;;4988003;28;20050;-77
2021/11/14 03:52:19;;;;;;;24.67;17.58;;;8.50;99.90;;;;;;4993961;28;20462;-77
2021/11/14 03:54:45;;;;;;;21.83;16.77;;;8.50;99.90;;;;;;5003213;28;20027;-77
2021/11/14 03:57:11;;;;;;;21.88;17.17;;;8.50;99.90;;;;;;4989787;28;20122;-77
2021/11/14 03:59:36;;;;;;;19.95;17.30;;;8.50;99.90;;;;;;4995003;28;20027;-77
2021/11/14 04:02:03;;;;;;;22.17;17.42;;;8.50;99.90;;;;;;5002247;28;20030;-77
2021/11/14 04:04:29;;;;;;;24.00;17.60;;;8.40;99.90;;;;;;4998098;28;20366;-77
2021/11/14 04:06:55;;;;;;;20.67;17.60;;;8.40;99.90;;;;;;4995638;28;20105;-76
2021/11/14 04:09:20;;;;;;;19.75;16.25;;;8.30;99.90;;;;;;5006495;28;20097;-77
2021/11/14 04:11:46;;;;;;;25.17;18.70;;;8.40;99.90;;;;;;5012462;28;20082;-77
2021/11/14 04:14:11;;;;;;;23.88;18.08;;;8.40;99.90;;;;;;4988362;28;20027;-76
2021/11/14 04:16:37;;;;;;;20.55;16.85;;;8.30;99.90;;;;;;4993473;28;20413;-78
2021/11/14 04:19:03;;;;;;;22.27;17.98;;;8.30;99.90;;;;;;4997233;28;20030;-77
2021/11/14 04:21:29;;;;;;;23.38;18.88;;;8.20;99.90;;;;;;4999082;28;20038;-77
2021/11/14 04:23:54;;;;;;;22.98;18.90;;;8.20;99.90;;;;;;4999489;28;20030;-76
2021/11/14 04:26:20;;;;;;;23.13;17.73;;;8.10;99.90;;;;;;4995251;28;20033;-76
2021/11/14 04:28:46;;;;;;;21.42;17.85;;;8.10;99.90;;;;;;4984718;28;20019;-77
2021/11/14 04:31:12;;;;;;;25.15;19.42;;;8.10;99.90;;;;;;4992827;28;20022;-76
2021/11/14 04:33:37;;;;;;;27.17;19.85;;;8.00;99.90;;;;;;4992003;28;20077;-77
2021/11/14 04:36:03;;;;;;;22.73;17.83;;;8.00;99.90;;;;;;4990075;28;20106;-77
2021/11/14 04:38:29;;;;;;;24.88;18.88;;;8.00;99.90;;;;;;4984202;28;20030;-77
2021/11/14 04:40:55;;;;;;;25.55;19.52;;;8.00;99.90;;;;;;4987686;28;20030;-77
2021/11/14 04:43:21;;;;;;;27.13;20.65;;;7.90;99.90;;;;;;4992621;28;20389;-77
2021/11/14 04:45:49;;;;;;;27.30;19.65;;;8.00;99.90;;;;;;4981014;28;20027;-77
2021/11/14 04:48:15;;;;;;;25.60;20.30;;;8.00;99.90;;;;;;4990264;28;20039;-77
2021/11/14 04:50:42;;;;;;;24.38;19.08;;;8.00;99.90;;;;;;4997161;28;20027;-76
2021/11/14 04:53:08;;;;;;;23.40;18.50;;;8.00;99.90;;;;;;4990043;28;20123;-77
2021/11/14 04:55:34;;;;;;;24.48;19.52;;;8.00;99.90;;;;;;4994738;28;20065;-77
2021/11/14 04:58:01;;;;;;;22.50;18.50;;;8.10;99.90;;;;;;4985524;28;20041;-78
2021/11/14 05:00:37;;;;;;;23.58;18.38;;;8.10;99.90;;;;;;4996080;28;20065;-76
2021/11/14 05:03:03;;;;;;;20.30;17.17;;;8.10;99.90;;;;;;4999367;28;20030;-78
2021/11/14 05:05:29;;;;;;;20.52;18.15;;;8.10;99.90;;;;;;4990429;28;20406;-77
2021/11/14 05:07:55;;;;;;;25.30;17.75;;;8.20;99.90;;;;;;4992958;28;20014;-77
2021/11/14 05:10:20;;;;;;;20.42;16.67;;;8.20;99.90;;;;;;4990880;28;20033;-77
2021/11/14 05:12:46;;;;;;;20.75;17.58;;;8.40;99.90;;;;;;4988336;28;20026;-76
2021/11/14 05:15:12;;;;;;;19.98;17.02;;;8.40;99.90;;;;;;4993696;28;20113;-78
2021/11/14 05:17:37;;;;;;;21.45;18.48;;;8.40;99.90;;;;;;4992275;28;20030;-78
2021/11/14 05:20:04;;;;;;;18.42;15.40;;;8.40;99.90;;;;;;4988977;28;20091;-76
2021/11/14 05:22:30;;;;;;;22.27;17.55;;;8.50;99.90;;;;;;5015944;23;20567;-77
2021/11/14 05:24:55;;;;;;;19.52;16.65;;;8.40;99.90;;;;;;5011554;28;20034;-76
2021/11/14 05:27:21;;;;;;;18.77;16.80;;;8.40;99.90;;;;;;5027766;28;20021;-77
2021/11/14 05:29:47;;;;;;;21.65;17.75;;;8.30;99.90;;;;;;5007493;28;20030;-77
2021/11/14 05:32:12;;;;;;;23.67;17.77;;;8.30;99.90;;;;;;5011022;28;20107;-78
2021/11/14 05:34:38;;;;;;;22.30;18.50;;;8.30;99.90;;;;;;5003974;28;20026;-77
2021/11/14 05:37:04;;;;;;;20.67;17.27;;;8.20;99.90;;;;;;5006532;28;20037;-77
2021/11/14 05:39:30;;;;;;;22.45;17.85;;;8.20;99.90;;;;;;5012880;28;20109;-76
2021/11/14 05:41:55;;;;;;;23.95;17.70;;;8.20;99.90;;;;;;5005657;28;20148;-77
2021/11/14 05:44:21;;;;;;;24.88;19.10;;;8.20;99.90;;;;;;5006322;28;20030;-76
2021/11/14 05:46:47;;;;;;;22.65;17.88;;;8.40;99.90;;;;;;5017891;28;20033;-77
2021/11/14 05:49:14;;;;;;;20.67;17.02;;;8.40;99.90;;;;;;5008334;28;20031;-77
2021/11/14 05:51:41;;;;;;;22.85;16.45;;;8.50;99.90;;;;;;5007834;28;20022;-77
2021/11/14 05:54:07;;;;;;;20.10;17.90;;;8.50;99.90;;;;;;5012276;28;20018;-78
2021/11/14 05:56:33;;;;;;;21.67;17.75;;;8.50;99.90;;;;;;5011298;28;20037;-78
2021/11/14 05:59:27;;;;;;;23.60;18.30;;;8.50;99.90;;;;;;5008454;28;20023;-78
2021/11/14 06:01:58;;;;;;;20.98;17.13;;;8.40;99.90;;;;;;5005053;28;20038;-78
2021/11/14 06:04:34;;;;;;;21.55;16.40;;;8.30;99.90;;;;;;5007339;28;20109;-77
2021/11/14 06:06:59;;;;;;;22.10;17.30;;;8.30;99.90;;;;;;5004866;28;20025;-78
2021/11/14 06:09:25;;;;;;;25.02;18.75;;;8.20;99.90;;;;;;5010288;28;20025;-77
2021/11/14 06:11:51;;;;;;;20.83;17.92;;;8.20;99.90;;;;;;5011740;28;20026;-78
2021/11/14 06:14:16;;;;;;;20.77;16.25;;;8.30;99.90;;;;;;5016038;28;20048;-77
2021/11/14 06:16:42;;;;;;;19.38;17.27;;;8.30;99.90;;;;;;5015899;28;20040;-78
2021/11/14 06:19:07;;;;;;;21.33;18.02;;;8.20;99.90;;;;;;5022916;28;20027;-78
2021/11/14 06:21:33;;;;;;;22.55;17.55;;;8.20;99.90;;;;;;5008536;28;20580;-77
2021/11/14 06:23:59;;;;;;;20.85;17.58;;;8.20;99.90;;;;;;5010950;28;20029;-78
2021/11/14 06:26:24;;;;;;;27.60;20.08;;;8.10;99.90;;;;;;5008265;28;20378;-77
2021/11/14 06:28:50;;;;;;;23.15;19.60;;;8.20;99.90;;;;;;5010710;28;20029;-78
2021/11/14 06:31:16;;;;;;;27.27;19.60;;;8.20;99.90;;;;;;5015606;28;20029;-78
2021/11/14 06:33:42;;;;;;;22.33;18.63;;;8.10;99.90;;;;;;5011324;28;20379;-77
2021/11/14 06:36:08;;;;;;;24.13;19.17;;;8.10;99.90;;;;;;5013326;28;20037;-76
2021/11/14 06:38:33;;;;;;;22.48;18.58;;;8.10;99.90;;;;;;5017689;28;20026;-77
2021/11/14 06:40:59;;;;;;;29.17;20.55;;;8.10;99.90;;;;;;5011716;28;20038;-76
2021/11/14 06:43:25;;;;;;;25.35;18.88;;;8.10;99.90;;;;;;5029213;28;20029;-77
2021/11/14 06:45:51;;;;;;;25.27;19.08;;;8.10;99.90;;;;;;5011331;28;20021;-77
2021/11/14 06:48:17;;;;;;;24.02;18.48;;;8.10;99.90;;;;;;5013055;28;20033;-78
2021/11/14 06:50:42;;;;;;;23.67;18.50;;;8.10;99.90;;;;;;5019027;28;20052;-76
2021/11/14 06:53:08;;;;;;;24.75;18.52;;;8.10;99.90;;;;;;5017382;28;20029;-76
2021/11/14 06:55:34;;;;;;;23.20;18.83;;;8.10;99.90;;;;;;5006405;28;20470;-77
2021/11/14 06:58:00;;;;;;;28.70;20.70;;;8.10;99.90;;;;;;5009978;28;20101;-80
2021/11/14 07:00:27;;;;;;;21.92;18.80;;;8.10;99.90;;;;;;5015870;28;20032;-77
2021/11/14 07:02:53;;;;;;;20.08;17.35;;;8.20;99.90;;;;;;5015461;28;20413;-77
2021/11/14 07:05:20;;;;;;;23.63;17.50;;;8.30;99.90;;;;;;5010679;28;20029;-77
2021/11/14 07:07:46;;;;;;;21.98;16.00;;;8.30;99.90;;;;;;5012609;28;20102;-78
2021/11/14 07:10:14;;;;;;;20.90;16.75;;;8.40;99.90;;;;;;5009950;28;20046;-76
2021/11/14 07:12:40;;;;;;;21.42;17.52;;;8.30;99.90;;;;;;5003574;28;20026;-76
2021/11/14 07:15:09;;;;;;;23.00;17.55;;;8.30;99.90;;;;;;5015064;28;20022;-75
2021/11/14 07:17:35;;;;;;;20.95;17.45;;;8.30;99.90;;;;;;5022777;28;20018;-76
2021/11/14 07:20:00;;;;;;;23.25;18.15;;;8.30;99.90;;;;;;5020289;28;20026;-76
2021/11/14 07:22:27;;;;;;;22.10;17.38;;;8.30;99.90;;;;;;5024512;28;20053;-76
2021/11/14 07:24:59;;;;;;;22.08;17.98;;;8.40;99.90;;;;;;5020110;28;20026;-76
2021/11/14 07:27:25;;;;;;;19.75;16.77;;;8.60;99.90;;;;;;5019731;28;20022;-76
2021/11/14 07:29:51;;;;;;;19.88;16.38;;;8.80;99.90;;;;;;5019825;28;20080;-78
2021/11/14 07:32:18;;;;;;;20.67;15.75;;;8.80;99.90;;;;;;5015250;28;20037;-78
2021/11/14 07:34:44;;;;;;;18.23;16.17;;;8.90;99.90;;;;;;5007051;28;20018;-76
2021/11/14 07:37:10;;;;;;;20.08;16.00;;;9.00;99.90;;;;;;5008122;28;20362;-75
2021/11/14 07:39:35;;;;;;;17.25;14.95;;;9.10;99.90;;;;;;5009193;28;20030;-76
2021/11/14 07:42:01;;;;;;;18.77;16.08;;;9.10;99.90;;;;;;5012090;28;20038;-77
2021/11/14 07:44:27;;;;;;;18.30;15.93;;;9.10;99.90;;;;;;5016772;28;20018;-77
2021/11/14 07:46:53;;;;;;;17.65;15.77;;;9.10;99.90;;;;;;5024975;28;20057;-77
2021/11/14 07:49:18;;;;;;;19.23;17.02;;;9.00;99.90;;;;;;5012521;28;20026;-77
2021/11/14 07:51:44;;;;;;;18.33;16.40;;;8.90;99.90;;;;;;5009118;28;20013;-77
2021/11/14 07:54:10;;;;;;;19.92;15.88;;;9.00;99.90;;;;;;5015114;28;20061;-79
2021/11/14 07:56:36;;;;;;;17.48;15.50;;;9.10;99.90;;;;;;5012580;28;20034;-77
2021/11/14 07:59:03;;;;;;;18.30;16.02;;;9.10;99.90;;;;;;5016197;28;20080;-76
2021/11/14 08:01:29;;;;;;;19.02;15.23;;;9.10;99.90;;;;;;5015527;28;20025;-77
2021/11/14 08:03:54;;;;;;;16.17;14.45;;;9.30;99.90;;;;;;5005266;28;20113;-77
2021/11/14 08:06:20;;;;;;;17.02;15.23;;;9.20;99.90;;;;;;5016177;28;20022;-75
2021/11/14 08:08:46;;;;;;;18.60;16.00;;;9.30;99.90;;;;;;5025866;28;20049;-77
2021/11/14 08:11:12;;;;;;;17.25;15.45;;;9.40;99.90;;;;;;5015393;28;20018;-77
2021/11/14 08:13:38;;;;;;;20.58;15.45;;;9.40;99.90;;;;;;5023529;28;20061;-79
2021/11/14 08:16:05;;;;;;;20.17;17.75;;;9.40;99.90;;;;;;5017037;28;20025;-76
2021/11/14 08:18:31;;;;;;;19.20;16.20;;;9.50;99.90;;;;;;5015704;28;20096;-78
2021/11/14 08:20:56;;;;;;;18.27;15.15;;;9.60;99.90;;;;;;5007855;28;20030;-77
2021/11/14 08:23:22;;;;;;;16.48;14.70;;;9.70;99.90;;;;;;5022348;28;20029;-79
2021/11/14 08:25:48;;;;;;;15.90;14.20;;;9.70;99.90;;;;;;5012202;28;20014;-78
2021/11/14 08:28:14;;;;;;;16.52;14.80;;;9.70;99.90;;;;;;5014114;28;20105;-77
2021/11/14 08:30:40;;;;;;;17.45;15.25;;;9.90;99.90;;;;;;5017547;28;20026;-77
2021/11/14 08:33:07;;;;;;;18.55;15.43;;;9.90;99.90;;;;;;5015383;28;20040;-78
2021/11/14 08:35:33;;;;;;;16.30;14.43;;;9.90;99.90;;;;;;5005259;28;20132;-78
2021/11/14 08:38:00;;;;;;;16.10;14.35;;;9.90;99.90;;;;;;5009808;28;20025;-77
2021/11/14 08:40:29;;;;;;;14.18;12.77;;;10.00;99.90;;;;;;5017571;28;20049;-77
2021/11/14 08:42:56;;;;;;;14.45;13.05;;;10.10;99.90;;;;;;5005462;28;20022;-77
2021/11/14 08:45:24;;;;;;;14.82;13.23;;;10.00;99.90;;;;;;5016459;28;20029;-77
2021/11/14 08:47:49;;;;;;;16.63;14.93;;;9.90;99.90;;;;;;5012150;28;20062;-77
2021/11/14 08:50:16;;;;;;;16.80;13.68;;;9.90;99.90;;;;;;5018482;28;20033;-77
2021/11/14 08:52:45;;;;;;;16.33;14.07;;;9.90;99.90;;;;;;5018005;28;20382;-77
2021/11/14 08:55:24;;;;;;;15.07;13.48;;;10.00;99.90;;;;;;5010711;28;20525;-78
2021/11/14 08:57:52;;;;;;;17.35;14.65;;;10.00;99.90;;;;;;5012731;28;20100;-77
2021/11/14 09:00:21;;;;;;;16.02;13.73;;;10.00;99.90;;;;;;5016409;28;20030;-79
2021/11/14 09:02:49;;;;;;;15.88;13.98;;;10.30;99.90;;;;;;5001959;28;20064;-78
2021/11/14 09:05:17;;;;;;;17.17;13.68;;;10.40;99.90;;;;;;5016185;28;20034;-77
2021/11/14 09:07:43;;;;;;;16.40;14.05;;;10.50;99.90;;;;;;5023405;28;20453;-77
2021/11/14 09:10:09;;;;;;;17.85;12.45;;;10.70;99.90;;;;;;5007350;28;20046;-78
2021/11/14 09:12:35;;;;;;;15.20;13.60;;;10.70;99.90;;;;;;5006349;28;20301;-77
2021/11/14 09:15:01;;;;;;;14.80;13.30;;;10.60;99.90;;;;;;5009973;28;20037;-77
2021/11/14 09:17:27;;;;;;;16.38;13.70;;;10.60;99.90;;;;;;5012564;28;20022;-78
2021/11/14 09:19:52;;;;;;;14.38;12.93;;;10.60;99.90;;;;;;5027183;28;20038;-84
2021/11/14 09:22:18;;;;;;;15.35;13.75;;;10.50;99.90;;;;;;5030908;28;20053;-81
2021/11/14 09:24:44;;;;;;;14.05;12.55;;;10.50;99.90;;;;;;5035324;28;20124;-81
2021/11/14 09:27:10;;;;;;;15.27;13.68;;;10.50;99.90;;;;;;5046854;28;20042;-82
2021/11/14 09:29:36;;;;;;;17.67;14.80;;;10.60;99.90;;;;;;5018567;28;20056;-79
2021/11/14 09:32:02;;;;;;;15.63;13.90;;;10.60;99.90;;;;;;5013204;28;20090;-79
2021/11/14 09:34:28;;;;;;;13.80;12.40;;;10.70;99.90;;;;;;5011442;28;20441;-80
2021/11/14 09:36:53;;;;;;;15.02;13.43;;;10.60;99.90;;;;;;5010141;28;20034;-80
2021/11/14 09:39:19;;;;;;;16.02;14.35;;;10.50;99.90;;;;;;5007821;28;20236;-79
2021/11/14 09:41:48;;;;;;;15.05;13.45;;;10.50;99.90;;;;;;5010955;28;20083;-79
2021/11/14 09:44:16;;;;;;;14.38;12.98;;;10.60;99.90;;;;;;5012149;28;20034;-79
2021/11/14 09:46:48;;;;;;;17.98;14.25;;;10.80;99.90;;;;;;5012087;28;20053;-80
2021/11/14 09:49:15;;;;;;;17.50;15.68;;;10.90;99.90;;;;;;4996815;28;20026;-78
2021/11/14 09:51:41;;;;;;;16.48;13.73;;;10.90;99.90;;;;;;5012719;28;20014;-79
2021/11/14 09:54:08;;;;;;;15.20;13.43;;;10.90;99.90;;;;;;5013156;28;20029;-75
2021/11/14 09:56:34;;;;;;;14.27;12.32;;;10.80;99.90;;;;;;5021228;28;20034;-75
2021/11/14 09:59:00;;;;;;;14.65;13.10;;;10.70;99.90;;;;;;5018766;28;20182;-74
2021/11/14 10:01:26;;;;;;;15.13;13.52;;;10.60;99.90;;;;;;5012125;28;20160;-78
2021/11/14 10:03:52;;;;;;;16.17;14.15;;;10.60;99.90;;;;;;5016901;28;20029;-78
2021/11/14 10:06:25;;;;;;;14.88;13.48;;;10.60;99.90;;;;;;5016760;28;20021;-77
2021/11/14 10:08:51;;;;;;;15.95;14.30;;;10.70;99.90;;;;;;5012184;28;20394;-78
2021/11/14 10:11:17;;;;;;;14.93;13.35;;;10.80;99.90;;;;;;5011909;28;20030;-77
2021/11/14 10:13:49;;;;;;;18.90;14.98;;;10.90;99.90;;;;;;5018196;28;20022;-83
2021/11/14 10:16:19;;;;;;;15.68;13.88;;;11.00;99.90;;;;;;5014200;28;20030;-84
2021/11/14 10:19:01;;;;;;;15.40;13.50;;;10.90;99.90;;;;;;5010713;28;20054;-76
2021/11/14 10:21:30;;;;;;;17.80;13.82;;;10.80;99.90;;;;;;5010566;28;20078;-75
2021/11/14 10:23:58;;;;;;;17.95;13.95;;;10.60;99.90;;;;;;5017035;28;20099;-74
2021/11/14 10:26:47;;;;;;;16.23;13.60;;;10.60;99.90;;;;;;5103686;27;1932628;-77
2021/11/14 10:29:13;;;;;;;18.77;15.02;;;11.00;99.90;;;;;;5135060;27;20031;-76
2021/11/14 10:31:40;;;;;;;16.75;14.43;;;11.20;99.90;;;;;;5126875;27;20029;-79
2021/11/14 10:34:07;;;;;;;17.00;13.82;;;11.30;99.90;;;;;;5124421;27;20028;-77
2021/11/14 10:36:34;;;;;;;15.35;13.30;;;11.20;99.90;;;;;;5140275;27;20046;-75
2021/11/14 10:39:11;;;;;;;16.55;14.60;;;11.20;99.90;;;;;;5111761;22;20045;-78
2021/11/14 10:41:47;;;;;;;15.13;13.52;;;11.10;99.90;;;;;;5075791;28;20120;-78
2021/11/14 10:44:16;;;;;;;14.80;12.57;;;11.20;99.90;;;;;;5072173;28;20025;-78
2021/11/14 10:46:42;;;;;;;19.08;15.15;;;11.30;99.90;;;;;;5073011;28;20051;-80
2021/11/14 10:49:10;;;;;;;16.15;14.38;;;11.30;99.90;;;;;;5066816;28;20085;-79
2021/11/14 10:51:37;;;;;;;21.25;14.52;;;11.30;99.90;;;;;;5076834;28;20048;-80
2021/11/14 10:54:03;;;;;;;18.90;14.65;;;11.40;99.90;;;;;;5071053;28;20032;-80
2021/11/14 10:56:29;;;;;;;16.02;12.88;;;11.50;99.90;;;;;;5079533;28;20055;-79
2021/11/14 10:58:55;;;;;;;18.00;15.10;;;11.60;99.90;;;;;;5078556;28;20021;-78
2021/11/14 11:01:20;;;;;;;16.13;13.57;;;11.60;99.90;;;;;;5077260;28;20516;-80
2021/11/14 11:03:51;;;;;;;19.38;14.43;;;11.70;99.90;;;;;;5057847;28;20037;-77
2021/11/14 11:06:28;;;;;;;15.52;13.30;;;11.70;99.90;;;;;;5062244;28;20037;-77
2021/11/14 11:09:02;;;;;;;18.85;14.27;;;11.60;99.90;;;;;;5060153;28;20045;-75
2021/11/14 11:11:28;;;;;;;17.65;13.43;;;11.50;99.90;;;;;;5059746;28;20396;-75
2021/11/14 11:13:54;;;;;;;19.92;14.10;;;11.50;99.90;;;;;;5057104;28;20036;-74
2021/11/14 11:16:23;;;;;;;17.30;14.32;;;11.50;99.90;;;;;;5063977;28;20056;-79
2021/11/14 11:19:00;;;;;;;16.83;14.52;;;11.40;99.90;;;;;;5072362;28;20033;-79
2021/11/14 11:21:37;;;;;;;19.40;14.90;;;11.40;99.90;;;;;;5073444;28;20066;-80
2021/11/14 11:24:12;;;;;;;21.25;15.25;;;11.30;99.90;;;;;;5073519;28;20036;-76
2021/11/14 11:26:39;;;;;;;18.48;14.85;;;11.30;99.90;;;;;;5058156;28;20051;-77
2021/11/14 11:29:17;;;;;;;16.67;13.95;;;11.30;99.90;;;;;;5069034;28;20380;-76
2021/11/14 11:31:43;;;;;;;18.75;14.95;;;11.30;99.90;;;;;;5066596;28;20043;-78
2021/11/14 11:34:09;;;;;;;16.20;14.50;;;11.30;99.90;;;;;;5060944;28;20055;-77
2021/11/14 11:36:35;;;;;;;15.57;13.90;;;11.20;99.90;;;;;;5056619;28;20029;-77
2021/11/14 11:39:01;;;;;;;17.52;14.23;;;11.10;99.90;;;;;;5046149;28;20082;-76
2021/11/14 11:41:28;;;;;;;16.63;14.57;;;11.10;99.90;;;;;;5055438;28;20106;-76
2021/11/14 11:43:56;;;;;;;17.95;15.52;;;11.00;99.90;;;;;;5043337;28;20029;-75
2021/11/14 11:46:32;;;;;;;17.48;14.32;;;10.90;99.90;;;;;;5053164;28;20036;-75
2021/11/14 11:49:01;;;;;;;16.95;14.00;;;10.90;99.90;;;;;;5052134;28;20021;-76
2021/11/14 11:51:36;;;;;;;16.75;14.40;;;10.90;99.90;;;;;;5048815;28;20045;-80
2021/11/14 11:54:24;;;;;;;15.95;14.25;;;11.00;99.90;;;;;;5044309;28;20009;-77
2021/11/14 11:56:56;;;;;;;17.27;14.75;;;11.00;99.90;;;;;;5057797;28;20436;-82
2021/11/14 11:59:43;;;;;;;16.02;14.10;;;11.10;99.90;;;;;;5069530;28;20088;-79
2021/11/14 12:02:15;;;;;;;18.80;14.50;;;11.10;99.90;;;;;;5055923;28;20031;-80
2021/11/14 12:04:50;;;;;;;19.02;14.75;;;11.00;99.90;;;;;;5056661;28;20017;-83
2021/11/14 12:07:29;;;;;;;19.77;15.43;;;11.00;99.90;;;;;;5061999;28;20040;-81
2021/11/14 12:10:26;;;;;;;19.15;13.60;;;10.80;99.90;;;;;;5059926;28;20021;-80
2021/11/14 12:12:55;;;;;;;18.20;13.90;;;11.20;99.90;;;;;;5046241;28;20018;-79
2021/11/14 12:15:28;;;;;;;18.77;14.55;;;11.50;99.90;;;;;;5036649;28;20096;-77
2021/11/14 12:18:01;;;;;;;18.35;13.98;;;11.60;99.90;;;;;;5052816;28;20412;-79
2021/11/14 12:20:37;;;;;;;19.60;14.77;;;11.70;99.90;;;;;;5045282;28;20021;-77
2021/11/14 12:23:37;;;;;;;17.42;13.55;;;11.70;99.90;;;;;;5053653;28;20036;-78
2021/11/14 12:26:09;;;;;;;17.25;13.35;;;11.90;99.90;;;;;;5037988;28;20481;-78
2021/11/14 12:28:40;;;;;;;18.27;12.95;;;11.80;99.90;;;;;;5045391;28;20017;-77
2021/11/14 12:31:22;;;;;;;15.27;12.40;;;12.00;99.90;;;;;;5045160;28;20049;-78
2021/11/14 12:33:51;;;;;;;17.85;12.68;;;12.00;99.90;;;;;;5062905;28;20328;-78
2021/11/14 12:36:49;;;;;;;18.55;13.52;;;12.10;99.90;;;;;;5049206;28;20018;-77